sensor_id;sensor_type;location;lat;lon;timestamp;temperature;humidity
56256;DHT22;57229;51.432;-2.598;2023-08-31T00:00:34;13.90;99.90
56256;DHT22;57229;51.432;-2.598;2023-08-31T00:03:00;13.90;99.90
56256;DHT22;57229;51.432;-2.598;2023-08-31T00:05:25;13.80;99.90
56256;DHT22;57229;51.432;-2.598;2023-08-31T00:07:54;13.80;99.90
56256;DHT22;57229;51.432;-2.598;2023-08-31T00:10:20;13.80;99.90
56256;DHT22;57229;51.432;-2.598;2023-08-31T00:12:45;13.70;99.90
56256;DHT22;57229;51.432;-2.598;2023-08-31T00:15:11;13.70;99.90
56256;DHT22;57229;51.432;-2.598;2023-08-31T00:17:36;13.70;99.90
56256;DHT22;57229;51.432;-2.598;2023-08-31T00:20:03;13.70;99.90
56256;DHT22;57229;51.432;-2.598;2023-08-31T00:22:31;13.70;99.90
56256;DHT22;57229;51.432;-2.598;2023-08-31T00:24:57;13.80;99.90
56256;DHT22;57229;51.432;-2.598;2023-08-31T00:27:34;14.50;99.90
56256;DHT22;57229;51.432;-2.598;2023-08-31T00:29:59;13.60;99.90
56256;DHT22;57229;51.432;-2.598;2023-08-31T00:32:25;13.50;99.90
56256;DHT22;57229;51.432;-2.598;2023-08-31T00:34:51;13.40;99.90
56256;DHT22;57229;51.432;-2.598;2023-08-31T00:37:16;13.30;99.90
56256;DHT22;57229;51.432;-2.598;2023-08-31T00:39:42;13.30;99.90
56256;DHT22;57229;51.432;-2.598;2023-08-31T00:42:09;13.20;99.90
56256;DHT22;57229;51.432;-2.598;2023-08-31T00:44:35;13.80;99.90
56256;DHT22;57229;51.432;-2.598;2023-08-31T00:47:01;13.10;99.90
56256;DHT22;57229;51.432;-2.598;2023-08-31T00:49:28;13.10;99.90
56256;DHT22;57229;51.432;-2.598;2023-08-31T00:51:54;13.20;99.90
56256;DHT22;57229;51.432;-2.598;2023-08-31T00:54:23;13.10;99.90
56256;DHT22;57229;51.432;-2.598;2023-08-31T00:56:53;13.10;99.90
56256;DHT22;57229;51.432;-2.598;2023-08-31T00:59:19;13.00;99.90
56256;DHT22;57229;51.432;-2.598;2023-08-31T01:02:07;13.70;99.90
56256;DHT22;57229;51.432;-2.598;2023-08-31T01:07:57;12.90;99.90
56256;DHT22;57229;51.432;-2.598;2023-08-31T01:13:22;12.90;99.90
56256;DHT22;57229;51.432;-2.598;2023-08-31T01:15:53;12.90;99.90
56256;DHT22;57229;51.432;-2.598;2023-08-31T01:18:22;12.90;99.90
56256;DHT22;57229;51.432;-2.598;2023-08-31T01:23:53;13.60;99.90
56256;DHT22;57229;51.432;-2.598;2023-08-31T01:26:20;13.00;99.90
56256;DHT22;57229;51.432;-2.598;2023-08-31T01:28:47;13.10;99.90
56256;DHT22;57229;51.432;-2.598;2023-08-31T01:31:13;13.20;99.90
56256;DHT22;57229;51.432;-2.598;2023-08-31T01:33:40;13.10;99.90
56256;DHT22;57229;51.432;-2.598;2023-08-31T01:36:12;13.20;99.90
56256;DHT22;57229;51.432;-2.598;2023-08-31T01:38:42;13.70;99.90
56256;DHT22;57229;51.432;-2.598;2023-08-31T01:41:12;14.00;99.90
56256;DHT22;57229;51.432;-2.598;2023-08-31T01:43:40;13.10;99.90
56256;DHT22;57229;51.432;-2.598;2023-08-31T01:46:07;13.00;99.90
56256;DHT22;57229;51.432;-2.598;2023-08-31T01:48:41;13.10;99.90
56256;DHT22;57229;51.432;-2.598;2023-08-31T01:51:07;13.10;99.90
56256;DHT22;57229;51.432;-2.598;2023-08-31T01:53:34;13.10;99.90
56256;DHT22;57229;51.432;-2.598;2023-08-31T01:56:00;13.10;99.90
56256;DHT22;57229;51.432;-2.598;2023-08-31T01:58:25;13.10;99.90
56256;DHT22;57229;51.432;-2.598;2023-08-31T02:00:51;13.10;99.90
56256;DHT22;57229;51.432;-2.598;2023-08-31T02:03:17;13.20;99.90
56256;DHT22;57229;51.432;-2.598;2023-08-31T02:05:42;13.10;99.90
56256;DHT22;57229;51.432;-2.598;2023-08-31T02:08:08;13.80;99.90
56256;DHT22;57229;51.432;-2.598;2023-08-31T02:10:33;13.20;99.90
56256;DHT22;57229;51.432;-2.598;2023-08-31T02:12:59;13.20;99.90
56256;DHT22;57229;51.432;-2.598;2023-08-31T02:15:25;13.20;99.90
56256;DHT22;57229;51.432;-2.598;2023-08-31T02:17:51;13.30;99.90
56256;DHT22;57229;51.432;-2.598;2023-08-31T02:20:16;13.30;99.90
56256;DHT22;57229;51.432;-2.598;2023-08-31T02:22:42;13.30;99.90
56256;DHT22;57229;51.432;-2.598;2023-08-31T02:25:08;13.40;99.90
56256;DHT22;57229;51.432;-2.598;2023-08-31T02:27:34;13.30;99.90
56256;DHT22;57229;51.432;-2.598;2023-08-31T02:29:59;13.40;99.90
56256;DHT22;57229;51.432;-2.598;2023-08-31T02:32:26;13.40;99.90
56256;DHT22;57229;51.432;-2.598;2023-08-31T02:34:51;13.40;99.90
56256;DHT22;57229;51.432;-2.598;2023-08-31T02:37:17;13.40;99.90
56256;DHT22;57229;51.432;-2.598;2023-08-31T02:39:42;13.40;99.90
56256;DHT22;57229;51.432;-2.598;2023-08-31T02:42:08;13.40;99.90
56256;DHT22;57229;51.432;-2.598;2023-08-31T02:44:34;13.40;99.90
56256;DHT22;57229;51.432;-2.598;2023-08-31T02:47:00;13.50;99.90
56256;DHT22;57229;51.432;-2.598;2023-08-31T02:49:25;13.40;99.90
56256;DHT22;57229;51.432;-2.598;2023-08-31T02:51:51;13.40;99.90
56256;DHT22;57229;51.432;-2.598;2023-08-31T02:54:16;13.30;99.90
56256;DHT22;57229;51.432;-2.598;2023-08-31T02:56:42;13.40;99.90
56256;DHT22;57229;51.432;-2.598;2023-08-31T02:59:07;13.40;99.90
56256;DHT22;57229;51.432;-2.598;2023-08-31T03:01:33;13.30;99.90
56256;DHT22;57229;51.432;-2.598;2023-08-31T03:03:59;13.30;99.90
56256;DHT22;57229;51.432;-2.598;2023-08-31T03:06:25;13.20;99.90
56256;DHT22;57229;51.432;-2.598;2023-08-31T03:08:51;13.20;99.90
56256;DHT22;57229;51.432;-2.598;2023-08-31T03:11:16;13.10;99.90
56256;DHT22;57229;51.432;-2.598;2023-08-31T03:13:42;13.10;99.90
56256;DHT22;57229;51.432;-2.598;2023-08-31T03:16:08;13.20;99.90
56256;DHT22;57229;51.432;-2.598;2023-08-31T03:18:33;13.20;99.90
56256;DHT22;57229;51.432;-2.598;2023-08-31T03:20:59;13.10;99.90
56256;DHT22;57229;51.432;-2.598;2023-08-31T03:23:26;14.00;99.90
56256;DHT22;57229;51.432;-2.598;2023-08-31T03:25:52;12.90;99.90
56256;DHT22;57229;51.432;-2.598;2023-08-31T03:28:17;13.00;99.90
56256;DHT22;57229;51.432;-2.598;2023-08-31T03:30:43;13.00;99.90
56256;DHT22;57229;51.432;-2.598;2023-08-31T03:33:10;13.70;99.90
56256;DHT22;57229;51.432;-2.598;2023-08-31T03:35:36;13.10;99.90
56256;DHT22;57229;51.432;-2.598;2023-08-31T03:38:02;13.00;99.90
56256;DHT22;57229;51.432;-2.598;2023-08-31T03:40:28;13.00;99.90
56256;DHT22;57229;51.432;-2.598;2023-08-31T03:42:54;13.10;99.90
56256;DHT22;57229;51.432;-2.598;2023-08-31T03:45:20;13.50;99.90
56256;DHT22;57229;51.432;-2.598;2023-08-31T03:47:46;13.20;99.90
56256;DHT22;57229;51.432;-2.598;2023-08-31T03:50:11;13.60;99.90
56256;DHT22;57229;51.432;-2.598;2023-08-31T03:52:37;13.20;99.90
56256;DHT22;57229;51.432;-2.598;2023-08-31T03:55:03;13.20;99.90
56256;DHT22;57229;51.432;-2.598;2023-08-31T03:57:28;13.10;99.90
56256;DHT22;57229;51.432;-2.598;2023-08-31T03:59:54;13.70;99.90
56256;DHT22;57229;51.432;-2.598;2023-08-31T04:02:20;13.00;99.90
56256;DHT22;57229;51.432;-2.598;2023-08-31T04:04:45;13.00;99.90
56256;DHT22;57229;51.432;-2.598;2023-08-31T04:07:11;13.70;99.90
56256;DHT22;57229;51.432;-2.598;2023-08-31T04:09:36;13.00;99.90
56256;DHT22;57229;51.432;-2.598;2023-08-31T04:12:02;13.00;99.90
56256;DHT22;57229;51.432;-2.598;2023-08-31T04:14:28;13.00;99.90
56256;DHT22;57229;51.432;-2.598;2023-08-31T04:16:57;13.00;99.90
56256;DHT22;57229;51.432;-2.598;2023-08-31T04:19:23;13.00;99.90
56256;DHT22;57229;51.432;-2.598;2023-08-31T04:21:49;13.00;99.90
56256;DHT22;57229;51.432;-2.598;2023-08-31T04:24:14;13.80;99.90
56256;DHT22;57229;51.432;-2.598;2023-08-31T04:26:40;13.00;99.90
56256;DHT22;57229;51.432;-2.598;2023-08-31T04:29:06;13.10;99.90
56256;DHT22;57229;51.432;-2.598;2023-08-31T04:31:32;13.00;99.90
56256;DHT22;57229;51.432;-2.598;2023-08-31T04:33:58;13.10;99.90
56256;DHT22;57229;51.432;-2.598;2023-08-31T04:36:24;13.00;99.90
56256;DHT22;57229;51.432;-2.598;2023-08-31T04:38:51;13.10;99.90
56256;DHT22;57229;51.432;-2.598;2023-08-31T04:41:16;13.10;99.90
56256;DHT22;57229;51.432;-2.598;2023-08-31T04:43:42;13.80;99.90
56256;DHT22;57229;51.432;-2.598;2023-08-31T04:46:08;13.10;99.90
56256;DHT22;57229;51.432;-2.598;2023-08-31T04:48:33;13.20;99.90
56256;DHT22;57229;51.432;-2.598;2023-08-31T04:50:59;13.30;99.90
56256;DHT22;57229;51.432;-2.598;2023-08-31T04:53:25;13.30;99.90
56256;DHT22;57229;51.432;-2.598;2023-08-31T04:55:51;13.40;99.90
56256;DHT22;57229;51.432;-2.598;2023-08-31T04:58:16;13.30;99.90
56256;DHT22;57229;51.432;-2.598;2023-08-31T05:00:42;13.30;99.90
56256;DHT22;57229;51.432;-2.598;2023-08-31T05:03:09;13.30;99.90
56256;DHT22;57229;51.432;-2.598;2023-08-31T05:05:35;13.40;99.90
56256;DHT22;57229;51.432;-2.598;2023-08-31T05:08:01;13.40;99.90
56256;DHT22;57229;51.432;-2.598;2023-08-31T05:10:27;13.40;99.90
56256;DHT22;57229;51.432;-2.598;2023-08-31T05:12:52;13.50;99.90
56256;DHT22;57229;51.432;-2.598;2023-08-31T05:15:18;13.40;99.90
56256;DHT22;57229;51.432;-2.598;2023-08-31T05:17:43;13.40;99.90
56256;DHT22;57229;51.432;-2.598;2023-08-31T05:20:09;13.40;99.90
56256;DHT22;57229;51.432;-2.598;2023-08-31T05:22:35;13.40;99.90
56256;DHT22;57229;51.432;-2.598;2023-08-31T05:25:01;13.30;99.90
56256;DHT22;57229;51.432;-2.598;2023-08-31T05:27:27;13.30;99.90
56256;DHT22;57229;51.432;-2.598;2023-08-31T05:29:53;13.30;99.90
56256;DHT22;57229;51.432;-2.598;2023-08-31T05:32:18;13.30;99.90
56256;DHT22;57229;51.432;-2.598;2023-08-31T05:34:44;13.30;99.90
56256;DHT22;57229;51.432;-2.598;2023-08-31T05:37:09;13.40;99.90
56256;DHT22;57229;51.432;-2.598;2023-08-31T05:39:35;13.40;99.90
56256;DHT22;57229;51.432;-2.598;2023-08-31T05:42:01;13.40;99.90
56256;DHT22;57229;51.432;-2.598;2023-08-31T05:44:26;13.60;99.90
56256;DHT22;57229;51.432;-2.598;2023-08-31T05:46:52;13.40;99.90
56256;DHT22;57229;51.432;-2.598;2023-08-31T05:49:18;13.40;99.90
56256;DHT22;57229;51.432;-2.598;2023-08-31T05:51:43;13.50;99.90
56256;DHT22;57229;51.432;-2.598;2023-08-31T05:54:09;13.40;99.90
56256;DHT22;57229;51.432;-2.598;2023-08-31T05:56:38;13.80;99.90
56256;DHT22;57229;51.432;-2.598;2023-08-31T05:59:05;13.50;99.90
56256;DHT22;57229;51.432;-2.598;2023-08-31T06:01:31;13.70;99.90
56256;DHT22;57229;51.432;-2.598;2023-08-31T06:03:57;13.50;99.90
56256;DHT22;57229;51.432;-2.598;2023-08-31T06:06:23;13.50;99.90
56256;DHT22;57229;51.432;-2.598;2023-08-31T06:08:49;13.10;99.90
56256;DHT22;57229;51.432;-2.598;2023-08-31T06:11:15;13.60;99.90
56256;DHT22;57229;51.432;-2.598;2023-08-31T06:13:41;13.90;99.90
56256;DHT22;57229;51.432;-2.598;2023-08-31T06:16:06;13.60;99.90
56256;DHT22;57229;51.432;-2.598;2023-08-31T06:18:32;13.70;99.90
56256;DHT22;57229;51.432;-2.598;2023-08-31T06:20:58;13.80;99.90
56256;DHT22;57229;51.432;-2.598;2023-08-31T06:23:23;13.80;99.90
56256;DHT22;57229;51.432;-2.598;2023-08-31T06:25:49;13.90;99.90
56256;DHT22;57229;51.432;-2.598;2023-08-31T06:28:15;14.20;99.90
56256;DHT22;57229;51.432;-2.598;2023-08-31T06:30:41;14.00;99.90
56256;DHT22;57229;51.432;-2.598;2023-08-31T06:33:12;14.00;99.90
56256;DHT22;57229;51.432;-2.598;2023-08-31T06:35:38;14.10;99.90
56256;DHT22;57229;51.432;-2.598;2023-08-31T06:38:04;14.10;99.90
56256;DHT22;57229;51.432;-2.598;2023-08-31T06:40:29;14.20;99.90
56256;DHT22;57229;51.432;-2.598;2023-08-31T06:42:55;14.20;99.90
56256;DHT22;57229;51.432;-2.598;2023-08-31T06:45:20;14.20;99.90
56256;DHT22;57229;51.432;-2.598;2023-08-31T06:47:46;14.40;99.90
56256;DHT22;57229;51.432;-2.598;2023-08-31T06:50:12;14.20;99.90
56256;DHT22;57229;51.432;-2.598;2023-08-31T06:52:37;14.20;99.90
56256;DHT22;57229;51.432;-2.598;2023-08-31T06:55:03;14.10;99.90
56256;DHT22;57229;51.432;-2.598;2023-08-31T06:57:29;14.10;99.90
56256;DHT22;57229;51.432;-2.598;2023-08-31T06:59:54;14.10;99.90
56256;DHT22;57229;51.432;-2.598;2023-08-31T07:02:20;14.10;99.90
56256;DHT22;57229;51.432;-2.598;2023-08-31T07:04:47;14.10;99.90
56256;DHT22;57229;51.432;-2.598;2023-08-31T07:07:14;14.10;99.90
56256;DHT22;57229;51.432;-2.598;2023-08-31T07:09:43;14.10;99.90
56256;DHT22;57229;51.432;-2.598;2023-08-31T07:12:09;14.20;99.90
56256;DHT22;57229;51.432;-2.598;2023-08-31T07:14:35;14.20;99.90
56256;DHT22;57229;51.432;-2.598;2023-08-31T07:17:00;14.20;99.90
56256;DHT22;57229;51.432;-2.598;2023-08-31T07:19:26;14.20;99.90
56256;DHT22;57229;51.432;-2.598;2023-08-31T07:21:52;14.20;99.90
56256;DHT22;57229;51.432;-2.598;2023-08-31T07:24:20;14.30;99.90
56256;DHT22;57229;51.432;-2.598;2023-08-31T07:26:46;14.30;99.90
56256;DHT22;57229;51.432;-2.598;2023-08-31T07:29:12;14.40;99.90
56256;DHT22;57229;51.432;-2.598;2023-08-31T07:31:37;15.10;99.90
56256;DHT22;57229;51.432;-2.598;2023-08-31T07:34:03;14.40;99.90
56256;DHT22;57229;51.432;-2.598;2023-08-31T07:36:29;14.40;99.90
56256;DHT22;57229;51.432;-2.598;2023-08-31T07:38:55;14.50;99.90
56256;DHT22;57229;51.432;-2.598;2023-08-31T07:41:20;14.50;99.90
56256;DHT22;57229;51.432;-2.598;2023-08-31T07:43:46;14.50;99.90
56256;DHT22;57229;51.432;-2.598;2023-08-31T07:46:11;14.40;99.90
56256;DHT22;57229;51.432;-2.598;2023-08-31T07:48:37;14.40;99.90
56256;DHT22;57229;51.432;-2.598;2023-08-31T07:51:03;14.50;99.90
56256;DHT22;57229;51.432;-2.598;2023-08-31T07:53:29;14.50;99.90
56256;DHT22;57229;51.432;-2.598;2023-08-31T07:55:55;14.60;99.90
56256;DHT22;57229;51.432;-2.598;2023-08-31T07:58:22;14.70;99.90
56256;DHT22;57229;51.432;-2.598;2023-08-31T08:00:49;14.70;99.90
56256;DHT22;57229;51.432;-2.598;2023-08-31T08:03:14;13.60;99.90
56256;DHT22;57229;51.432;-2.598;2023-08-31T08:05:40;14.90;99.90
56256;DHT22;57229;51.432;-2.598;2023-08-31T08:08:07;14.80;99.90
56256;DHT22;57229;51.432;-2.598;2023-08-31T08:10:32;14.80;99.90
56256;DHT22;57229;51.432;-2.598;2023-08-31T08:12:58;14.90;99.90
56256;DHT22;57229;51.432;-2.598;2023-08-31T08:15:24;14.80;99.90
56256;DHT22;57229;51.432;-2.598;2023-08-31T08:17:50;14.90;99.90
56256;DHT22;57229;51.432;-2.598;2023-08-31T08:22:54;14.80;99.90
56256;DHT22;57229;51.432;-2.598;2023-08-31T08:25:21;14.80;99.90
56256;DHT22;57229;51.432;-2.598;2023-08-31T08:27:47;14.90;99.90
56256;DHT22;57229;51.432;-2.598;2023-08-31T08:30:14;14.90;99.90
56256;DHT22;57229;51.432;-2.598;2023-08-31T08:32:41;14.90;99.90
56256;DHT22;57229;51.432;-2.598;2023-08-31T08:35:07;14.90;99.90
56256;DHT22;57229;51.432;-2.598;2023-08-31T08:37:32;15.00;99.90
56256;DHT22;57229;51.432;-2.598;2023-08-31T08:39:58;15.00;99.90
56256;DHT22;57229;51.432;-2.598;2023-08-31T08:42:25;15.00;99.90
56256;DHT22;57229;51.432;-2.598;2023-08-31T08:44:51;15.10;99.90
56256;DHT22;57229;51.432;-2.598;2023-08-31T08:47:17;15.00;99.90
56256;DHT22;57229;51.432;-2.598;2023-08-31T08:49:43;14.80;99.90
56256;DHT22;57229;51.432;-2.598;2023-08-31T08:52:10;14.40;99.90
56256;DHT22;57229;51.432;-2.598;2023-08-31T08:54:37;14.30;99.90
56256;DHT22;57229;51.432;-2.598;2023-08-31T08:57:04;14.20;99.90
56256;DHT22;57229;51.432;-2.598;2023-08-31T08:59:32;14.10;99.90
56256;DHT22;57229;51.432;-2.598;2023-08-31T09:01:58;14.20;99.90
56256;DHT22;57229;51.432;-2.598;2023-08-31T09:04:24;14.30;99.90
56256;DHT22;57229;51.432;-2.598;2023-08-31T09:06:52;14.30;99.90
56256;DHT22;57229;51.432;-2.598;2023-08-31T09:09:18;14.30;99.90
56256;DHT22;57229;51.432;-2.598;2023-08-31T09:11:45;14.20;99.90
56256;DHT22;57229;51.432;-2.598;2023-08-31T09:14:18;14.20;99.90
56256;DHT22;57229;51.432;-2.598;2023-08-31T09:16:48;14.10;99.90
56256;DHT22;57229;51.432;-2.598;2023-08-31T09:19:22;14.00;99.90
56256;DHT22;57229;51.432;-2.598;2023-08-31T09:21:48;14.00;99.90
56256;DHT22;57229;51.432;-2.598;2023-08-31T09:24:14;13.90;99.90
56256;DHT22;57229;51.432;-2.598;2023-08-31T09:26:44;13.90;99.90
56256;DHT22;57229;51.432;-2.598;2023-08-31T09:29:12;14.00;99.90
56256;DHT22;57229;51.432;-2.598;2023-08-31T09:31:37;14.20;99.90
56256;DHT22;57229;51.432;-2.598;2023-08-31T09:34:03;14.30;99.90
56256;DHT22;57229;51.432;-2.598;2023-08-31T09:36:29;14.40;99.90
56256;DHT22;57229;51.432;-2.598;2023-08-31T09:38:58;14.60;99.90
56256;DHT22;57229;51.432;-2.598;2023-08-31T09:41:24;14.70;99.90
56256;DHT22;57229;51.432;-2.598;2023-08-31T09:43:50;14.70;99.90
56256;DHT22;57229;51.432;-2.598;2023-08-31T09:46:15;14.70;99.90
56256;DHT22;57229;51.432;-2.598;2023-08-31T09:48:42;14.70;99.90
56256;DHT22;57229;51.432;-2.598;2023-08-31T09:51:10;14.80;99.90
56256;DHT22;57229;51.432;-2.598;2023-08-31T09:53:37;14.90;99.90
56256;DHT22;57229;51.432;-2.598;2023-08-31T09:56:05;14.90;99.90
56256;DHT22;57229;51.432;-2.598;2023-08-31T09:58:32;14.80;99.90
56256;DHT22;57229;51.432;-2.598;2023-08-31T10:00:59;14.70;99.90
56256;DHT22;57229;51.432;-2.598;2023-08-31T10:03:26;14.80;99.90
56256;DHT22;57229;51.432;-2.598;2023-08-31T10:05:52;14.90;99.90
56256;DHT22;57229;51.432;-2.598;2023-08-31T10:08:19;14.90;99.90
56256;DHT22;57229;51.432;-2.598;2023-08-31T10:10:45;14.90;99.90
56256;DHT22;57229;51.432;-2.598;2023-08-31T10:13:11;15.10;99.90
56256;DHT22;57229;51.432;-2.598;2023-08-31T10:15:37;15.10;99.90
56256;DHT22;57229;51.432;-2.598;2023-08-31T10:18:05;15.20;99.90
56256;DHT22;57229;51.432;-2.598;2023-08-31T10:20:32;15.10;99.90
56256;DHT22;57229;51.432;-2.598;2023-08-31T10:22:59;15.10;99.90
56256;DHT22;57229;51.432;-2.598;2023-08-31T10:25:24;15.10;99.90
56256;DHT22;57229;51.432;-2.598;2023-08-31T10:27:52;15.20;99.90
56256;DHT22;57229;51.432;-2.598;2023-08-31T10:30:25;15.40;99.90
56256;DHT22;57229;51.432;-2.598;2023-08-31T10:38:22;15.90;99.90
56256;DHT22;57229;51.432;-2.598;2023-08-31T10:46:19;16.20;99.90
56256;DHT22;57229;51.432;-2.598;2023-08-31T10:48:50;16.20;99.90
56256;DHT22;57229;51.432;-2.598;2023-08-31T10:51:16;16.20;99.90
56256;DHT22;57229;51.432;-2.598;2023-08-31T10:53:45;16.20;99.90
56256;DHT22;57229;51.432;-2.598;2023-08-31T10:56:11;17.10;99.90
56256;DHT22;57229;51.432;-2.598;2023-08-31T10:58:36;16.20;99.90
56256;DHT22;57229;51.432;-2.598;2023-08-31T11:01:02;16.20;99.90
56256;DHT22;57229;51.432;-2.598;2023-08-31T11:03:30;16.10;99.90
56256;DHT22;57229;51.432;-2.598;2023-08-31T11:05:56;16.00;99.90
56256;DHT22;57229;51.432;-2.598;2023-08-31T11:08:23;16.00;99.90
56256;DHT22;57229;51.432;-2.598;2023-08-31T11:10:50;15.90;99.90
56256;DHT22;57229;51.432;-2.598;2023-08-31T11:13:18;15.80;99.90
56256;DHT22;57229;51.432;-2.598;2023-08-31T11:15:47;15.70;99.90
56256;DHT22;57229;51.432;-2.598;2023-08-31T11:18:13;15.70;99.90
56256;DHT22;57229;51.432;-2.598;2023-08-31T11:20:42;15.70;99.90
56256;DHT22;57229;51.432;-2.598;2023-08-31T11:23:08;15.70;99.90
56256;DHT22;57229;51.432;-2.598;2023-08-31T11:25:34;15.70;99.90
56256;DHT22;57229;51.432;-2.598;2023-08-31T11:28:05;15.80;99.90
56256;DHT22;57229;51.432;-2.598;2023-08-31T11:30:31;15.90;99.90
56256;DHT22;57229;51.432;-2.598;2023-08-31T11:33:05;16.00;99.90
56256;DHT22;57229;51.432;-2.598;2023-08-31T11:35:35;16.20;99.90
56256;DHT22;57229;51.432;-2.598;2023-08-31T11:38:02;16.20;99.90
56256;DHT22;57229;51.432;-2.598;2023-08-31T11:40:28;16.10;99.90
56256;DHT22;57229;51.432;-2.598;2023-08-31T11:42:54;16.00;99.90
56256;DHT22;57229;51.432;-2.598;2023-08-31T11:45:21;15.90;99.90
56256;DHT22;57229;51.432;-2.598;2023-08-31T11:47:48;15.90;99.90
56256;DHT22;57229;51.432;-2.598;2023-08-31T11:50:16;15.90;99.90
56256;DHT22;57229;51.432;-2.598;2023-08-31T11:52:42;15.80;99.90
56256;DHT22;57229;51.432;-2.598;2023-08-31T11:55:12;15.80;99.90
56256;DHT22;57229;51.432;-2.598;2023-08-31T11:57:38;15.90;99.90
56256;DHT22;57229;51.432;-2.598;2023-08-31T12:00:04;15.90;99.90
56256;DHT22;57229;51.432;-2.598;2023-08-31T12:02:37;15.90;99.90
56256;DHT22;57229;51.432;-2.598;2023-08-31T12:05:03;16.10;99.90
56256;DHT22;57229;51.432;-2.598;2023-08-31T12:07:31;16.40;99.90
56256;DHT22;57229;51.432;-2.598;2023-08-31T12:10:03;16.80;99.90
56256;DHT22;57229;51.432;-2.598;2023-08-31T12:12:30;16.80;99.90
56256;DHT22;57229;51.432;-2.598;2023-08-31T12:14:58;16.90;99.90
56256;DHT22;57229;51.432;-2.598;2023-08-31T12:17:26;16.80;99.90
56256;DHT22;57229;51.432;-2.598;2023-08-31T12:19:53;16.80;99.90
56256;DHT22;57229;51.432;-2.598;2023-08-31T12:22:29;16.80;99.90
56256;DHT22;57229;51.432;-2.598;2023-08-31T12:24:57;16.80;99.90
56256;DHT22;57229;51.432;-2.598;2023-08-31T12:27:23;16.90;99.90
56256;DHT22;57229;51.432;-2.598;2023-08-31T12:29:49;16.90;99.90
56256;DHT22;57229;51.432;-2.598;2023-08-31T12:32:16;16.90;99.90
56256;DHT22;57229;51.432;-2.598;2023-08-31T12:34:43;16.90;99.90
56256;DHT22;57229;51.432;-2.598;2023-08-31T12:37:09;16.90;99.90
56256;DHT22;57229;51.432;-2.598;2023-08-31T12:39:34;17.00;99.90
56256;DHT22;57229;51.432;-2.598;2023-08-31T12:42:00;16.90;99.90
56256;DHT22;57229;51.432;-2.598;2023-08-31T12:44:25;17.00;99.90
56256;DHT22;57229;51.432;-2.598;2023-08-31T12:46:52;17.20;99.90
56256;DHT22;57229;51.432;-2.598;2023-08-31T12:49:18;17.10;99.90
56256;DHT22;57229;51.432;-2.598;2023-08-31T12:51:45;17.20;99.90
56256;DHT22;57229;51.432;-2.598;2023-08-31T12:54:12;17.20;99.90
56256;DHT22;57229;51.432;-2.598;2023-08-31T12:56:37;17.20;99.90
56256;DHT22;57229;51.432;-2.598;2023-08-31T12:59:03;17.30;99.90
56256;DHT22;57229;51.432;-2.598;2023-08-31T13:01:31;17.50;99.90
56256;DHT22;57229;51.432;-2.598;2023-08-31T13:03:59;17.50;99.90
56256;DHT22;57229;51.432;-2.598;2023-08-31T13:06:24;17.50;99.90
56256;DHT22;57229;51.432;-2.598;2023-08-31T13:08:50;17.60;99.90
56256;DHT22;57229;51.432;-2.598;2023-08-31T13:11:16;17.50;99.90
56256;DHT22;57229;51.432;-2.598;2023-08-31T13:13:43;17.30;99.90
56256;DHT22;57229;51.432;-2.598;2023-08-31T13:16:09;17.10;99.90
56256;DHT22;57229;51.432;-2.598;2023-08-31T13:18:34;17.10;99.90
56256;DHT22;57229;51.432;-2.598;2023-08-31T13:21:01;17.00;99.90
56256;DHT22;57229;51.432;-2.598;2023-08-31T13:23:28;16.90;99.90
56256;DHT22;57229;51.432;-2.598;2023-08-31T13:25:54;16.90;99.90
56256;DHT22;57229;51.432;-2.598;2023-08-31T13:28:21;16.90;99.90
56256;DHT22;57229;51.432;-2.598;2023-08-31T13:30:47;17.00;99.90
56256;DHT22;57229;51.432;-2.598;2023-08-31T13:33:12;17.00;99.90
56256;DHT22;57229;51.432;-2.598;2023-08-31T13:35:38;17.10;99.90
56256;DHT22;57229;51.432;-2.598;2023-08-31T13:38:04;17.10;99.90
56256;DHT22;57229;51.432;-2.598;2023-08-31T13:40:30;17.00;99.90
56256;DHT22;57229;51.432;-2.598;2023-08-31T13:42:59;17.00;99.90
56256;DHT22;57229;51.432;-2.598;2023-08-31T13:45:31;17.00;99.90
56256;DHT22;57229;51.432;-2.598;2023-08-31T13:48:00;17.10;99.90
56256;DHT22;57229;51.432;-2.598;2023-08-31T13:50:27;17.20;99.90
56256;DHT22;57229;51.432;-2.598;2023-08-31T13:52:53;17.10;99.90
56256;DHT22;57229;51.432;-2.598;2023-08-31T13:55:19;17.00;99.90
56256;DHT22;57229;51.432;-2.598;2023-08-31T13:57:45;17.00;99.90
56256;DHT22;57229;51.432;-2.598;2023-08-31T14:00:11;17.10;99.90
56256;DHT22;57229;51.432;-2.598;2023-08-31T14:02:37;17.20;99.90
56256;DHT22;57229;51.432;-2.598;2023-08-31T14:05:04;17.30;99.90
56256;DHT22;57229;51.432;-2.598;2023-08-31T14:07:35;17.30;99.90
56256;DHT22;57229;51.432;-2.598;2023-08-31T14:10:01;17.40;99.90
56256;DHT22;57229;51.432;-2.598;2023-08-31T14:12:30;17.50;99.90
56256;DHT22;57229;51.432;-2.598;2023-08-31T14:14:56;17.60;99.90
56256;DHT22;57229;51.432;-2.598;2023-08-31T14:17:23;17.70;99.90
56256;DHT22;57229;51.432;-2.598;2023-08-31T14:19:48;17.70;99.90
56256;DHT22;57229;51.432;-2.598;2023-08-31T14:22:14;17.70;99.90
56256;DHT22;57229;51.432;-2.598;2023-08-31T14:24:40;18.00;99.90
56256;DHT22;57229;51.432;-2.598;2023-08-31T14:27:06;18.30;99.90
56256;DHT22;57229;51.432;-2.598;2023-08-31T14:29:32;18.40;99.90
56256;DHT22;57229;51.432;-2.598;2023-08-31T14:31:58;18.40;99.90
56256;DHT22;57229;51.432;-2.598;2023-08-31T14:34:27;18.50;99.90
56256;DHT22;57229;51.432;-2.598;2023-08-31T14:36:53;18.60;99.90
56256;DHT22;57229;51.432;-2.598;2023-08-31T14:39:23;18.70;99.90
56256;DHT22;57229;51.432;-2.598;2023-08-31T14:41:57;18.70;99.90
56256;DHT22;57229;51.432;-2.598;2023-08-31T14:44:24;18.60;99.90
56256;DHT22;57229;51.432;-2.598;2023-08-31T14:46:56;18.30;99.90
56256;DHT22;57229;51.432;-2.598;2023-08-31T14:49:24;18.20;99.90
56256;DHT22;57229;51.432;-2.598;2023-08-31T14:51:51;18.00;99.90
56256;DHT22;57229;51.432;-2.598;2023-08-31T14:54:17;17.80;99.90
56256;DHT22;57229;51.432;-2.598;2023-08-31T14:56:43;17.70;99.90
56256;DHT22;57229;51.432;-2.598;2023-08-31T14:59:11;17.70;99.90
56256;DHT22;57229;51.432;-2.598;2023-08-31T15:01:37;17.70;99.90
56256;DHT22;57229;51.432;-2.598;2023-08-31T15:04:04;17.90;99.90
56256;DHT22;57229;51.432;-2.598;2023-08-31T15:06:29;18.10;99.90
56256;DHT22;57229;51.432;-2.598;2023-08-31T15:08:58;18.10;99.90
56256;DHT22;57229;51.432;-2.598;2023-08-31T15:11:26;18.20;99.90
56256;DHT22;57229;51.432;-2.598;2023-08-31T15:13:55;18.20;99.90
56256;DHT22;57229;51.432;-2.598;2023-08-31T15:16:20;18.30;99.90
56256;DHT22;57229;51.432;-2.598;2023-08-31T15:18:46;18.30;99.90
56256;DHT22;57229;51.432;-2.598;2023-08-31T15:21:12;18.30;99.90
56256;DHT22;57229;51.432;-2.598;2023-08-31T15:23:38;18.30;99.90
56256;DHT22;57229;51.432;-2.598;2023-08-31T15:26:04;18.20;99.90
56256;DHT22;57229;51.432;-2.598;2023-08-31T15:28:29;18.20;99.90
56256;DHT22;57229;51.432;-2.598;2023-08-31T15:30:55;18.30;99.90
56256;DHT22;57229;51.432;-2.598;2023-08-31T15:33:21;18.40;99.90